createdAt,value
2022-07-29T00:00:02.282Z,100368.84
2022-07-29T00:02:29.183Z,100368.88
2022-07-29T00:04:55.827Z,100364.00
2022-07-29T00:07:22.352Z,100364.34
2022-07-29T00:09:51.676Z,100364.59
2022-07-29T00:12:25.164Z,100366.03
2022-07-29T00:14:54.812Z,100363.22
2022-07-29T00:17:21.555Z,100362.88
2022-07-29T00:19:48.129Z,100369.31
2022-07-29T00:22:14.813Z,100371.00
2022-07-29T00:24:41.404Z,100373.38
2022-07-29T00:27:07.920Z,100377.56
2022-07-29T00:29:35.204Z,100372.72
2022-07-29T00:32:03.090Z,100367.94
2022-07-29T00:34:48.234Z,100372.03
2022-07-29T00:37:14.797Z,100369.09
2022-07-29T00:39:41.450Z,100362.22
2022-07-29T00:42:08.890Z,100359.63
2022-07-29T00:44:42.613Z,100356.91
2022-07-29T00:47:11.453Z,100356.31
2022-07-29T00:49:40.362Z,100349.66
2022-07-29T00:52:08.789Z,100357.81
2022-07-29T00:54:43.929Z,100352.56
2022-07-29T00:57:13.052Z,100362.31
2022-07-29T00:59:40.178Z,100356.56
2022-07-29T01:02:06.797Z,100351.91
2022-07-29T01:04:34.328Z,100364.78
2022-07-29T01:07:05.406Z,100367.63
2022-07-29T01:09:46.182Z,100364.69
2022-07-29T01:12:17.639Z,100357.56
2022-07-29T01:14:44.610Z,100357.00
2022-07-29T01:17:32.618Z,100362.75
2022-07-29T01:20:07.239Z,100364.47
2022-07-29T01:22:44.043Z,100357.69
2022-07-29T01:25:44.748Z,100356.44
2022-07-29T01:28:40.923Z,100348.53
2022-07-29T01:31:11.233Z,100346.50
2022-07-29T01:33:58.698Z,100344.25
2022-07-29T01:36:36.400Z,100341.19
2022-07-29T01:39:15.035Z,100348.53
2022-07-29T01:41:57.823Z,100344.56
2022-07-29T01:44:36.739Z,100339.38
2022-07-29T01:47:13.691Z,100331.34
2022-07-29T01:49:47.051Z,100342.75
2022-07-29T01:52:55.207Z,100341.19
2022-07-29T01:55:25.599Z,100340.94
2022-07-29T01:57:52.286Z,100342.53
2022-07-29T02:00:20.112Z,100347.03
2022-07-29T02:02:49.310Z,100338.03
2022-07-29T02:05:19.668Z,100328.97
2022-07-29T02:07:48.556Z,100328.06
2022-07-29T02:10:17.908Z,100319.25
2022-07-29T02:12:49.845Z,100333.47
2022-07-29T02:15:18.123Z,100332.00
2022-07-29T02:17:54.982Z,100329.66
2022-07-29T02:20:24.184Z,100329.34
2022-07-29T02:22:54.426Z,100332.75
2022-07-29T02:25:23.358Z,100327.78
2022-07-29T02:27:53.237Z,100324.56
2022-07-29T02:30:22.721Z,100327.19
2022-07-29T02:32:50.598Z,100318.72
2022-07-29T02:35:18.111Z,100326.53
2022-07-29T02:38:06.543Z,100333.97
2022-07-29T02:40:37.318Z,100328.78
2022-07-29T02:43:06.254Z,100327.28
2022-07-29T02:45:33.826Z,100326.38
2022-07-29T02:48:02.962Z,100329.75
2022-07-29T02:50:35.746Z,100322.56
2022-07-29T02:53:10.023Z,100325.47
2022-07-29T02:55:47.463Z,100321.88
2022-07-29T02:58:29.410Z,100329.09
2022-07-29T03:01:03.251Z,100332.22
2022-07-29T03:03:33.852Z,100330.22
2022-07-29T03:06:02.687Z,100327.06
2022-07-29T03:08:30.890Z,100342.63
2022-07-29T03:11:00.476Z,100332.47
2022-07-29T03:13:28.219Z,100335.53
2022-07-29T03:15:55.152Z,100326.72
2022-07-29T03:18:21.905Z,100340.25
2022-07-29T03:20:48.501Z,100333.72
2022-07-29T03:23:21.047Z,100334.72
2022-07-29T03:25:47.913Z,100332.22
2022-07-29T03:28:15.141Z,100340.50
2022-07-29T03:30:44.529Z,100331.91
2022-07-29T03:33:13.507Z,100341.94
2022-07-29T03:35:40.897Z,100339.50
2022-07-29T03:38:07.497Z,100335.97
2022-07-29T03:40:50.815Z,100343.25
2022-07-29T03:43:19.580Z,100336.22
2022-07-29T03:45:50.521Z,100336.59
2022-07-29T03:48:20.651Z,100343.19
2022-07-29T03:50:47.773Z,100345.72
2022-07-29T03:53:14.790Z,100353.34
2022-07-29T03:55:44.300Z,100345.34
2022-07-29T03:58:13.088Z,100353.88
2022-07-29T04:00:41.087Z,100348.31
2022-07-29T04:03:11.712Z,100283.00
2022-07-29T04:05:38.699Z,100346.88
2022-07-29T04:08:06.657Z,100352.28
2022-07-29T04:10:34.141Z,100352.00
2022-07-29T04:13:02.283Z,100359.22
2022-07-29T04:15:31.325Z,100355.25
2022-07-29T04:17:58.879Z,100342.38
2022-07-29T04:20:25.415Z,100345.34
2022-07-29T04:22:51.938Z,100353.91
2022-07-29T04:25:18.535Z,100341.97
2022-07-29T04:28:02.952Z,100355.31
2022-07-29T04:30:30.797Z,100342.00
2022-07-29T04:32:57.535Z,100333.19
2022-07-29T04:35:24.139Z,100338.91
2022-07-29T04:37:50.721Z,100335.56
2022-07-29T04:40:17.293Z,100341.44
2022-07-29T04:42:46.380Z,100340.00
2022-07-29T04:45:14.309Z,100347.97
2022-07-29T04:47:40.947Z,100343.06
2022-07-29T04:50:08.919Z,100341.59
2022-07-29T04:52:38.347Z,100336.59
2022-07-29T04:55:06.277Z,100339.59
2022-07-29T04:57:32.916Z,100349.59
2022-07-29T04:59:59.522Z,100338.50
2022-07-29T05:02:26.198Z,100340.81
2022-07-29T05:04:52.889Z,100342.09
2022-07-29T05:07:19.528Z,100337.25
2022-07-29T05:09:46.045Z,100326.50
2022-07-29T05:12:12.997Z,100334.31
2022-07-29T05:14:39.690Z,100334.34
2022-07-29T05:17:06.442Z,100340.03
2022-07-29T05:19:33.020Z,100349.06
2022-07-29T05:22:01.015Z,100334.38
2022-07-29T05:24:27.694Z,100344.09
2022-07-29T05:26:54.227Z,100340.38
2022-07-29T05:29:43.083Z,100338.13
2022-07-29T05:32:07.793Z,100350.00
2022-07-29T05:34:34.435Z,100343.00
2022-07-29T05:37:01.051Z,100345.16
2022-07-29T05:39:47.300Z,100348.22
2022-07-29T05:42:14.146Z,100343.00
2022-07-29T05:44:41.019Z,100339.59
2022-07-29T05:47:07.575Z,100328.75
2022-07-29T05:49:34.386Z,100334.75
2022-07-29T05:52:01.049Z,100327.63
2022-07-29T05:54:27.647Z,100337.56
2022-07-29T05:56:54.198Z,100335.75
2022-07-29T05:59:20.740Z,100347.06
2022-07-29T06:01:47.399Z,100352.81
2022-07-29T06:04:14.553Z,100345.44
2022-07-29T06:06:41.437Z,100345.16
2022-07-29T06:09:12.630Z,100350.00
2022-07-29T06:11:39.854Z,100341.94
2022-07-29T06:14:06.389Z,100339.19
2022-07-29T06:16:33.025Z,100339.50
2022-07-29T06:18:59.740Z,100338.50
2022-07-29T06:21:26.710Z,100331.75
2022-07-29T06:23:53.335Z,100331.13
2022-07-29T06:26:30.223Z,100330.72
2022-07-29T06:28:58.162Z,100328.91
2022-07-29T06:31:24.853Z,100326.53
2022-07-29T06:33:51.547Z,100337.13
2022-07-29T06:36:21.315Z,100330.75
2022-07-29T06:38:51.235Z,100332.31
2022-07-29T06:41:19.245Z,100344.75
2022-07-29T06:43:51.891Z,100336.00
2022-07-29T06:46:20.804Z,100329.41
2022-07-29T06:48:51.426Z,100335.94
2022-07-29T06:51:22.474Z,100339.78
2022-07-29T06:53:59.850Z,100339.69
2022-07-29T06:56:39.583Z,100343.22
2022-07-29T06:59:08.331Z,100335.53
2022-07-29T07:01:36.189Z,100339.16
2022-07-29T07:04:03.157Z,100331.34
2022-07-29T07:06:29.802Z,100337.97
2022-07-29T07:08:56.539Z,100339.09
2022-07-29T07:11:23.200Z,100339.41
2022-07-29T07:13:49.757Z,100338.19
2022-07-29T07:16:16.888Z,100336.34
2022-07-29T07:18:43.593Z,100334.78
2022-07-29T07:21:10.223Z,100335.91
2022-07-29T07:23:36.764Z,100331.19
2022-07-29T07:26:04.081Z,100333.91
2022-07-29T07:28:30.693Z,100331.91
2022-07-29T07:30:57.461Z,100320.22
2022-07-29T07:33:24.121Z,100319.88
2022-07-29T07:35:50.677Z,100331.88
2022-07-29T07:38:17.207Z,100322.25
2022-07-29T07:40:43.736Z,100324.44
2022-07-29T07:43:10.305Z,100326.84
2022-07-29T07:45:38.381Z,100321.00
2022-07-29T07:48:05.759Z,100335.31
2022-07-29T07:50:32.486Z,100317.94
2022-07-29T07:52:59.151Z,100324.91
2022-07-29T07:55:27.394Z,100317.78
2022-07-29T07:57:57.046Z,100321.28
2022-07-29T08:00:24.088Z,100329.47
2022-07-29T08:02:51.128Z,100321.75
2022-07-29T08:05:18.439Z,100317.94
2022-07-29T08:07:47.219Z,100317.78
2022-07-29T08:10:37.034Z,100322.81
2022-07-29T08:13:08.479Z,100324.09
2022-07-29T08:15:35.989Z,100322.97
2022-07-29T08:18:08.475Z,100329.06
2022-07-29T08:20:36.854Z,100325.94
2022-07-29T08:23:04.187Z,100318.66
2022-07-29T08:25:30.779Z,100320.00
2022-07-29T08:27:57.548Z,100325.50
2022-07-29T08:30:24.090Z,100325.16
2022-07-29T08:32:55.182Z,100322.28
2022-07-29T08:35:24.345Z,100317.84
2022-07-29T08:37:51.605Z,100322.69
2022-07-29T08:40:18.706Z,100327.03
2022-07-29T08:42:46.365Z,100322.75
2022-07-29T08:45:13.394Z,100322.72
2022-07-29T08:47:40.914Z,100319.50
2022-07-29T08:50:09.396Z,100323.28
2022-07-29T08:52:41.531Z,100325.97
2022-07-29T08:55:10.099Z,100311.66
2022-07-29T08:57:37.116Z,100311.56
2022-07-29T09:00:11.769Z,100311.38
2022-07-29T09:02:46.916Z,100307.66
2022-07-29T09:05:16.601Z,100303.66
2022-07-29T09:07:44.341Z,100304.88
2022-07-29T09:10:11.370Z,100304.81
2022-07-29T09:12:38.417Z,100304.06
2022-07-29T09:15:05.555Z,100307.50
2022-07-29T09:17:46.915Z,100311.53
2022-07-29T09:20:17.007Z,100304.75
2022-07-29T09:22:43.650Z,100303.38
2022-07-29T09:25:13.095Z,100295.22
2022-07-29T09:27:40.047Z,100294.44
2022-07-29T09:30:11.754Z,100310.06
2022-07-29T09:32:59.520Z,100298.97
2022-07-29T09:35:26.949Z,100292.97
2022-07-29T09:37:53.592Z,100286.59
2022-07-29T09:40:22.736Z,100288.03
2022-07-29T09:42:49.659Z,100291.03
2022-07-29T09:45:31.349Z,100285.53
2022-07-29T09:48:01.490Z,100288.03
2022-07-29T09:50:41.364Z,100287.69
2022-07-29T09:53:10.316Z,100282.47
2022-07-29T09:55:51.837Z,100281.06
2022-07-29T09:58:20.621Z,100278.03
2022-07-29T10:00:48.869Z,100277.03
2022-07-29T10:03:16.735Z,100278.44
2022-07-29T10:05:44.398Z,100271.34
2022-07-29T10:08:13.313Z,100272.03
2022-07-29T10:10:44.924Z,100272.31
2022-07-29T10:13:16.110Z,100261.50
2022-07-29T10:15:45.268Z,100276.13
2022-07-29T10:18:13.490Z,100269.41
2022-07-29T10:20:40.803Z,100268.25
2022-07-29T10:23:07.444Z,100268.50
2022-07-29T10:25:34.284Z,100267.84
2022-07-29T10:28:00.818Z,100257.09
2022-07-29T10:30:28.019Z,100269.81
2022-07-29T10:32:57.832Z,100266.53
2022-07-29T10:35:44.591Z,100262.56
2022-07-29T10:38:45.662Z,100267.75
2022-07-29T10:41:27.517Z,100263.09
2022-07-29T10:44:03.233Z,100265.53
2022-07-29T10:46:36.602Z,100260.75
2022-07-29T10:49:10.216Z,100253.56
2022-07-29T10:51:57.648Z,100260.66
2022-07-29T10:54:36.635Z,100255.63
2022-07-29T10:57:54.271Z,100254.88
2022-07-29T11:00:16.704Z,100253.72
2022-07-29T11:02:45.534Z,100249.41
2022-07-29T11:05:20.544Z,100258.03
2022-07-29T11:08:13.570Z,100252.72
2022-07-29T11:10:46.553Z,100253.28
2022-07-29T11:13:43.351Z,100245.53
2022-07-29T11:16:09.951Z,100248.78
2022-07-29T11:18:57.910Z,100252.63
2022-07-29T11:21:54.030Z,100248.28
2022-07-29T11:24:32.138Z,100242.47
2022-07-29T11:27:13.269Z,100239.16
2022-07-29T11:29:50.682Z,100251.72
2022-07-29T11:32:23.251Z,100250.91
2022-07-29T11:35:17.194Z,100246.22
2022-07-29T11:38:08.363Z,100247.78
2022-07-29T11:40:37.854Z,100247.78
2022-07-29T11:43:07.331Z,100255.50
2022-07-29T11:45:47.475Z,100252.63
2022-07-29T11:48:27.854Z,100251.88
2022-07-29T11:50:58.271Z,100246.78
2022-07-29T11:53:25.654Z,100249.25
2022-07-29T11:55:58.190Z,100253.44
2022-07-29T11:58:26.254Z,100248.22
2022-07-29T12:00:55.282Z,100254.78
2022-07-29T12:03:35.420Z,100256.06
2022-07-29T12:06:14.876Z,100253.00
2022-07-29T12:08:44.201Z,100249.56
2022-07-29T12:11:20.831Z,100247.78
2022-07-29T12:13:49.219Z,100236.69
2022-07-29T12:16:16.323Z,100239.44
2022-07-29T12:19:03.994Z,100242.22
2022-07-29T12:21:52.224Z,100228.47
2022-07-29T12:24:23.254Z,100231.25
2022-07-29T12:26:59.289Z,100233.81
2022-07-29T12:29:35.100Z,100236.88
2022-07-29T12:32:04.123Z,100219.44
2022-07-29T12:34:31.351Z,100221.91
2022-07-29T12:36:58.117Z,100219.06
2022-07-29T12:39:27.429Z,100215.06
2022-07-29T12:42:04.097Z,100212.16
2022-07-29T12:44:52.238Z,100214.25
2022-07-29T12:47:20.648Z,100204.56
2022-07-29T12:49:47.925Z,100209.22
2022-07-29T12:52:31.325Z,100204.06
2022-07-29T12:54:58.407Z,100196.81
2022-07-29T12:57:25.288Z,100214.25
2022-07-29T13:00:09.032Z,100210.88
2022-07-29T13:02:35.984Z,100211.00
2022-07-29T13:05:06.404Z,100206.09
2022-07-29T13:07:55.310Z,100196.75
2022-07-29T13:10:24.633Z,100184.75
2022-07-29T13:13:11.682Z,100184.72
2022-07-29T13:15:40.063Z,100184.97
2022-07-29T13:18:34.620Z,100190.09
2022-07-29T13:21:14.797Z,100181.19
2022-07-29T13:23:42.089Z,100181.97
2022-07-29T13:26:10.937Z,100179.22
2022-07-29T13:28:37.599Z,100172.69
2022-07-29T13:31:04.425Z,100181.50
2022-07-29T13:33:31.302Z,100173.94
2022-07-29T13:35:57.842Z,100164.56
2022-07-29T13:38:24.448Z,100165.31
2022-07-29T13:40:57.887Z,100163.75
2022-07-29T13:43:24.436Z,100165.31
2022-07-29T13:45:51.051Z,100162.41
2022-07-29T13:48:17.631Z,100156.03
2022-07-29T13:50:44.320Z,100157.34
2022-07-29T13:53:10.916Z,100156.31
2022-07-29T13:55:45.054Z,100159.19
2022-07-29T13:58:11.681Z,100167.72
2022-07-29T14:00:38.228Z,100163.50
2022-07-29T14:03:04.749Z,100166.03
2022-07-29T14:05:31.327Z,100163.38
2022-07-29T14:07:57.889Z,100163.91
2022-07-29T14:10:24.441Z,100169.09
2022-07-29T14:12:51.022Z,100158.69
2022-07-29T14:15:18.299Z,100157.88
2022-07-29T14:17:44.844Z,100158.66
2022-07-29T14:20:11.601Z,100149.53
2022-07-29T14:22:42.348Z,100146.41
2022-07-29T14:25:14.544Z,100150.03
2022-07-29T14:27:42.870Z,100150.78
2022-07-29T14:30:10.068Z,100153.66
2022-07-29T14:32:36.600Z,100149.50
2022-07-29T14:35:03.566Z,100143.72
2022-07-29T14:37:37.674Z,100151.13
2022-07-29T14:40:08.013Z,100130.91
2022-07-29T14:42:34.538Z,100143.13
2022-07-29T14:45:01.143Z,100150.88
2022-07-29T14:47:27.780Z,100150.09
2022-07-29T14:49:54.329Z,100144.81
2022-07-29T14:52:20.877Z,100144.59
2022-07-29T14:54:47.461Z,100142.25
2022-07-29T14:57:14.051Z,100142.53
2022-07-29T14:59:40.586Z,100138.81
2022-07-29T15:02:07.152Z,100131.06
2022-07-29T15:04:33.817Z,100130.03
2022-07-29T15:07:00.401Z,100128.19
2022-07-29T15:09:26.999Z,100126.84
2022-07-29T15:11:53.526Z,100126.50
2022-07-29T15:14:20.082Z,100132.72
2022-07-29T15:16:48.090Z,100133.47
2022-07-29T15:19:14.948Z,100120.16
2022-07-29T15:21:48.478Z,100116.50
2022-07-29T15:24:26.152Z,100128.09
2022-07-29T15:26:52.707Z,100125.25
2022-07-29T15:29:20.032Z,100123.47
2022-07-29T15:31:46.659Z,100124.25
2022-07-29T15:34:13.365Z,100119.88
2022-07-29T15:36:55.527Z,100111.88
2022-07-29T15:39:23.144Z,100112.63
2022-07-29T15:41:50.269Z,100110.78
2022-07-29T15:44:16.984Z,100115.94
2022-07-29T15:47:02.379Z,100121.63
2022-07-29T15:49:47.081Z,100106.94
2022-07-29T15:52:18.384Z,100111.28
2022-07-29T15:54:45.429Z,100111.75
2022-07-29T15:57:12.011Z,100109.91
2022-07-29T15:59:38.690Z,100110.44
2022-07-29T16:02:05.532Z,100106.28
2022-07-29T16:04:32.143Z,100110.91
2022-07-29T16:06:59.036Z,100111.41
2022-07-29T16:09:26.535Z,100103.31
2022-07-29T16:11:54.053Z,100108.00
2022-07-29T16:14:21.043Z,100099.66
2022-07-29T16:16:48.398Z,100103.31
2022-07-29T16:19:15.086Z,100106.22
2022-07-29T16:21:41.759Z,100104.34
2022-07-29T16:24:08.599Z,100094.19
2022-07-29T16:26:36.044Z,100097.59
2022-07-29T16:29:03.392Z,100090.63
2022-07-29T16:31:29.982Z,100091.41
2022-07-29T16:33:56.615Z,100107.97
2022-07-29T16:36:23.464Z,100098.97
2022-07-29T16:38:50.250Z,100095.91
2022-07-29T16:41:16.785Z,100095.75
2022-07-29T16:43:43.372Z,100088.38
2022-07-29T16:46:15.690Z,100080.56
2022-07-29T16:48:45.850Z,100092.00
2022-07-29T16:51:14.355Z,100086.69
2022-07-29T16:53:41.780Z,100088.19
2022-07-29T16:56:12.735Z,100078.84
2022-07-29T16:58:43.513Z,100087.81
2022-07-29T17:01:11.055Z,100089.09
2022-07-29T17:04:00.258Z,100075.03
2022-07-29T17:06:28.700Z,100077.00
2022-07-29T17:08:56.355Z,100080.72
2022-07-29T17:11:22.884Z,100081.16
2022-07-29T17:14:10.207Z,100070.44
2022-07-29T17:16:36.933Z,100082.63
2022-07-29T17:19:03.861Z,100079.03
2022-07-29T17:21:30.426Z,100078.75
2022-07-29T17:23:58.871Z,100070.50
2022-07-29T17:26:26.870Z,100070.94
2022-07-29T17:28:55.667Z,100075.88
2022-07-29T17:31:22.577Z,100083.44
2022-07-29T17:33:49.151Z,100087.34
2022-07-29T17:36:25.287Z,100079.44
2022-07-29T17:38:53.691Z,100082.41
2022-07-29T17:41:21.676Z,100086.50
2022-07-29T17:43:49.608Z,100093.50
2022-07-29T17:46:17.380Z,100091.72
2022-07-29T17:48:44.918Z,100097.41
2022-07-29T17:51:12.539Z,100090.38
2022-07-29T17:53:39.196Z,100095.97
2022-07-29T17:56:05.883Z,100101.19
2022-07-29T17:58:32.577Z,100095.41
2022-07-29T18:00:59.168Z,100101.22
2022-07-29T18:03:25.972Z,100085.94
2022-07-29T18:05:53.676Z,100107.69
2022-07-29T18:08:20.339Z,100101.47
2022-07-29T18:10:46.973Z,100110.91
2022-07-29T18:13:13.915Z,100103.66
2022-07-29T18:15:41.029Z,100108.19
2022-07-29T18:18:07.641Z,100108.47
2022-07-29T18:20:34.454Z,100110.53
2022-07-29T18:23:01.619Z,100111.53
2022-07-29T18:25:28.998Z,100113.97
2022-07-29T18:28:00.158Z,100099.94
2022-07-29T18:30:27.973Z,100109.06
2022-07-29T18:33:19.680Z,100111.31
2022-07-29T18:35:41.244Z,100108.19
2022-07-29T18:38:07.811Z,100110.13
2022-07-29T18:40:34.498Z,100109.38
2022-07-29T18:43:01.451Z,100111.63
2022-07-29T18:45:28.610Z,100109.16
2022-07-29T18:47:56.250Z,100100.22
2022-07-29T18:50:29.030Z,100105.41
2022-07-29T18:52:58.534Z,100101.09
2022-07-29T18:55:26.307Z,100101.28
2022-07-29T18:57:56.537Z,100098.13
2022-07-29T19:00:24.214Z,100105.09
2022-07-29T19:02:50.966Z,100099.22
2022-07-29T19:05:17.606Z,100113.06
2022-07-29T19:07:44.133Z,100104.94
2022-07-29T19:10:11.306Z,100113.06
2022-07-29T19:12:37.925Z,100120.06
2022-07-29T19:15:04.777Z,100109.22
2022-07-29T19:17:31.439Z,100105.41
2022-07-29T19:19:58.168Z,100103.22
2022-07-29T19:22:24.932Z,100111.72
2022-07-29T19:24:51.579Z,100112.53
2022-07-29T19:27:18.258Z,100097.69
2022-07-29T19:29:44.800Z,100098.09
2022-07-29T19:32:12.132Z,100101.03
2022-07-29T19:34:38.657Z,100100.53
2022-07-29T19:37:05.369Z,100103.59
2022-07-29T19:39:35.252Z,100099.94
2022-07-29T19:42:03.460Z,100099.34
2022-07-29T19:44:30.356Z,100098.50
2022-07-29T19:46:59.550Z,100094.66
2022-07-29T19:49:26.340Z,100094.09
2022-07-29T19:51:53.319Z,100095.47
2022-07-29T19:54:20.798Z,100089.56
2022-07-29T19:56:47.360Z,100092.13
2022-07-29T19:59:14.612Z,100086.84
2022-07-29T20:01:41.370Z,100097.81
2022-07-29T20:04:08.029Z,100095.75
2022-07-29T20:06:34.864Z,100104.59
2022-07-29T20:09:01.499Z,100108.03
2022-07-29T20:11:29.741Z,100107.03
2022-07-29T20:13:56.391Z,100108.88
2022-07-29T20:16:23.030Z,100102.91
2022-07-29T20:18:52.007Z,100102.91
2022-07-29T20:21:18.554Z,100106.03
2022-07-29T20:23:45.939Z,100106.84
2022-07-29T20:26:12.761Z,100100.56
2022-07-29T20:28:40.393Z,100101.94
2022-07-29T20:31:07.214Z,100110.38
2022-07-29T20:33:33.802Z,100108.19
2022-07-29T20:36:01.830Z,100123.50
2022-07-29T20:38:30.608Z,100118.13
2022-07-29T20:40:58.822Z,100113.88
2022-07-29T20:43:27.067Z,100117.75
2022-07-29T20:45:53.695Z,100113.72
2022-07-29T20:48:20.284Z,100110.88
2022-07-29T20:50:48.734Z,100113.22
2022-07-29T20:53:16.839Z,100121.66
2022-07-29T20:55:43.562Z,100120.84
2022-07-29T20:58:10.249Z,100124.00
2022-07-29T21:00:37.419Z,100123.13
2022-07-29T21:03:04.336Z,100124.09
2022-07-29T21:05:31.450Z,100125.13
2022-07-29T21:07:58.376Z,100121.25
2022-07-29T21:10:25.733Z,100112.28
2022-07-29T21:12:52.292Z,100110.75
2022-07-29T21:15:20.843Z,100106.16
2022-07-29T21:17:48.211Z,100108.19
2022-07-29T21:20:16.570Z,100096.53
2022-07-29T21:22:45.206Z,100098.81
2022-07-29T21:25:12.096Z,100100.78
2022-07-29T21:27:57.102Z,100100.31
2022-07-29T21:30:23.624Z,100099.22
2022-07-29T21:32:50.398Z,100097.19
2022-07-29T21:35:35.904Z,100098.34
2022-07-29T21:38:04.119Z,100091.44
2022-07-29T21:40:30.854Z,100090.63
2022-07-29T21:42:57.535Z,100083.53
2022-07-29T21:45:24.118Z,100087.00
2022-07-29T21:47:50.679Z,100088.13
2022-07-29T21:50:17.259Z,100090.72
2022-07-29T21:52:43.849Z,100094.47
2022-07-29T21:55:11.615Z,100099.34
2022-07-29T21:57:38.322Z,100099.84
2022-07-29T22:00:08.303Z,100095.22
2022-07-29T22:02:34.841Z,100106.81
2022-07-29T22:05:01.480Z,100115.31
2022-07-29T22:07:55.855Z,100104.09
2022-07-29T22:10:15.815Z,100091.09
2022-07-29T22:12:42.347Z,100078.63
2022-07-29T22:15:09.343Z,100078.31
2022-07-29T22:17:37.417Z,100073.00
2022-07-29T22:20:05.239Z,100075.69
2022-07-29T22:22:31.842Z,100083.31
2022-07-29T22:24:58.402Z,100085.50
2022-07-29T22:27:24.959Z,100091.84
2022-07-29T22:29:51.899Z,100081.19
2022-07-29T22:32:18.609Z,100064.75
2022-07-29T22:34:45.155Z,100057.28
2022-07-29T22:37:11.698Z,100055.97
2022-07-29T22:39:38.352Z,100054.72
2022-07-29T22:42:05.051Z,100053.84
2022-07-29T22:44:31.678Z,100058.31
2022-07-29T22:46:58.496Z,100046.28
2022-07-29T22:49:25.259Z,100041.25
2022-07-29T22:51:51.930Z,100039.75
2022-07-29T22:54:18.513Z,100033.03
2022-07-29T22:56:45.047Z,100038.56
2022-07-29T22:59:11.551Z,100027.88
2022-07-29T23:01:38.333Z,100035.00
2022-07-29T23:04:05.957Z,100036.56
2022-07-29T23:06:32.640Z,100043.66
2022-07-29T23:08:59.329Z,100040.19
2022-07-29T23:11:25.892Z,100042.22
2022-07-29T23:13:52.444Z,100042.34
2022-07-29T23:16:26.756Z,100018.91
2022-07-29T23:18:54.362Z,100033.94
2022-07-29T23:21:20.993Z,100022.41
2022-07-29T23:23:48.523Z,100023.31
2022-07-29T23:26:16.884Z,100023.31
2022-07-29T23:28:44.900Z,100023.56
2022-07-29T23:31:11.825Z,100017.19
2022-07-29T23:33:38.409Z,100009.50
2022-07-29T23:36:05.072Z,100022.22
2022-07-29T23:38:31.613Z,100016.28
2022-07-29T23:41:01.414Z,100015.81
2022-07-29T23:43:28.882Z,100028.41
2022-07-29T23:45:56.382Z,100022.28
2022-07-29T23:48:24.850Z,100020.69
2022-07-29T23:50:51.752Z,100008.44
2022-07-29T23:53:18.377Z,100016.44
2022-07-29T23:55:45.081Z,100004.63
2022-07-29T23:58:11.652Z,100000.53
